sensor_id;sensor_type;location;lat;lon;timestamp;P1;durP1;ratioP1;P2;durP2;ratioP2
11604;SDS011;5858;43.076;25.626;2024-03-02T00:46:27;28.80;;;22.13;;
11604;SDS011;5858;43.076;25.626;2024-03-02T00:49:35;31.53;;;22.43;;
11604;SDS011;5858;43.076;25.626;2024-03-02T00:52:24;28.87;;;21.93;;
11604;SDS011;5858;43.076;25.626;2024-03-02T05:12:18;29.00;;;21.87;;
11604;SDS011;5858;43.076;25.626;2024-03-02T05:15:24;28.47;;;21.80;;
11604;SDS011;5858;43.076;25.626;2024-03-02T05:18:37;25.93;;;20.00;;
11604;SDS011;5858;43.076;25.626;2024-03-02T05:28:30;30.23;;;20.23;;
11604;SDS011;5858;43.076;25.626;2024-03-02T06:03:25;30.07;;;21.70;;
11604;SDS011;5858;43.076;25.626;2024-03-02T07:02:08;31.97;;;21.20;;
11604;SDS011;5858;43.076;25.626;2024-03-02T07:04:35;32.67;;;22.93;;
11604;SDS011;5858;43.076;25.626;2024-03-02T07:07:02;30.67;;;22.47;;
11604;SDS011;5858;43.076;25.626;2024-03-02T07:09:41;25.07;;;19.60;;
11604;SDS011;5858;43.076;25.626;2024-03-02T07:12:24;28.70;;;19.20;;
11604;SDS011;5858;43.076;25.626;2024-03-02T07:14:51;27.30;;;17.43;;
11604;SDS011;5858;43.076;25.626;2024-03-02T07:17:37;32.47;;;19.97;;
11604;SDS011;5858;43.076;25.626;2024-03-02T07:20:05;31.93;;;20.30;;
11604;SDS011;5858;43.076;25.626;2024-03-02T07:22:32;32.73;;;21.57;;
11604;SDS011;5858;43.076;25.626;2024-03-02T07:24:59;29.47;;;19.93;;
11604;SDS011;5858;43.076;25.626;2024-03-02T07:27:34;30.67;;;19.77;;
11604;SDS011;5858;43.076;25.626;2024-03-02T07:30:01;25.03;;;19.23;;
11604;SDS011;5858;43.076;25.626;2024-03-02T07:32:29;27.30;;;18.63;;
11604;SDS011;5858;43.076;25.626;2024-03-02T07:34:57;29.23;;;19.23;;
11604;SDS011;5858;43.076;25.626;2024-03-02T07:37:28;28.60;;;19.80;;
11604;SDS011;5858;43.076;25.626;2024-03-02T07:39:58;24.40;;;16.63;;
11604;SDS011;5858;43.076;25.626;2024-03-02T07:42:25;24.63;;;14.60;;
11604;SDS011;5858;43.076;25.626;2024-03-02T07:44:52;23.30;;;15.23;;
11604;SDS011;5858;43.076;25.626;2024-03-02T07:47:19;20.90;;;14.87;;
11604;SDS011;5858;43.076;25.626;2024-03-02T07:49:49;26.13;;;16.23;;
11604;SDS011;5858;43.076;25.626;2024-03-02T07:55:16;23.87;;;15.77;;
11604;SDS011;5858;43.076;25.626;2024-03-02T07:57:43;21.47;;;16.33;;
11604;SDS011;5858;43.076;25.626;2024-03-02T08:00:11;21.60;;;15.03;;
11604;SDS011;5858;43.076;25.626;2024-03-02T08:03:01;26.57;;;17.63;;
11604;SDS011;5858;43.076;25.626;2024-03-02T08:05:30;21.17;;;16.17;;
11604;SDS011;5858;43.076;25.626;2024-03-02T08:07:57;27.73;;;18.13;;
11604;SDS011;5858;43.076;25.626;2024-03-02T08:10:46;22.50;;;15.83;;
11604;SDS011;5858;43.076;25.626;2024-03-02T08:13:16;26.60;;;15.23;;
11604;SDS011;5858;43.076;25.626;2024-03-02T08:15:43;27.03;;;16.97;;
11604;SDS011;5858;43.076;25.626;2024-03-02T08:18:10;24.10;;;17.03;;
11604;SDS011;5858;43.076;25.626;2024-03-02T08:20:49;23.00;;;16.80;;
11604;SDS011;5858;43.076;25.626;2024-03-02T08:23:19;21.90;;;16.37;;
11604;SDS011;5858;43.076;25.626;2024-03-02T08:25:48;25.97;;;17.47;;
11604;SDS011;5858;43.076;25.626;2024-03-02T08:28:21;23.23;;;15.87;;
11604;SDS011;5858;43.076;25.626;2024-03-02T08:40:40;18.73;;;13.53;;
11604;SDS011;5858;43.076;25.626;2024-03-02T08:46:35;18.17;;;12.73;;
11604;SDS011;5858;43.076;25.626;2024-03-02T08:49:12;18.97;;;13.73;;
11604;SDS011;5858;43.076;25.626;2024-03-02T08:52:04;18.90;;;13.60;;
11604;SDS011;5858;43.076;25.626;2024-03-02T08:54:31;18.20;;;13.70;;
11604;SDS011;5858;43.076;25.626;2024-03-02T08:56:59;21.20;;;14.77;;
11604;SDS011;5858;43.076;25.626;2024-03-02T09:02:40;21.03;;;14.27;;
11604;SDS011;5858;43.076;25.626;2024-03-02T09:05:21;23.87;;;17.10;;
11604;SDS011;5858;43.076;25.626;2024-03-02T09:08:02;19.13;;;14.77;;
11604;SDS011;5858;43.076;25.626;2024-03-02T09:10:32;22.97;;;15.27;;
11604;SDS011;5858;43.076;25.626;2024-03-02T09:13:16;27.73;;;15.60;;
11604;SDS011;5858;43.076;25.626;2024-03-02T09:15:53;24.13;;;16.13;;
11604;SDS011;5858;43.076;25.626;2024-03-02T09:24:57;21.40;;;15.90;;
11604;SDS011;5858;43.076;25.626;2024-03-02T09:28:17;28.37;;;17.17;;
11604;SDS011;5858;43.076;25.626;2024-03-02T09:30:55;20.93;;;14.97;;
11604;SDS011;5858;43.076;25.626;2024-03-02T09:37:01;30.23;;;20.53;;
11604;SDS011;5858;43.076;25.626;2024-03-02T09:42:45;21.37;;;14.60;;
11604;SDS011;5858;43.076;25.626;2024-03-02T09:45:37;21.43;;;14.07;;
11604;SDS011;5858;43.076;25.626;2024-03-02T09:48:15;17.93;;;13.87;;
11604;SDS011;5858;43.076;25.626;2024-03-02T09:51:20;21.30;;;13.67;;
11604;SDS011;5858;43.076;25.626;2024-03-02T09:54:04;20.77;;;13.97;;
11604;SDS011;5858;43.076;25.626;2024-03-02T09:56:34;18.47;;;13.87;;
11604;SDS011;5858;43.076;25.626;2024-03-02T09:59:07;20.93;;;14.33;;
11604;SDS011;5858;43.076;25.626;2024-03-02T10:01:55;18.73;;;14.00;;
11604;SDS011;5858;43.076;25.626;2024-03-02T10:04:36;15.97;;;13.17;;
11604;SDS011;5858;43.076;25.626;2024-03-02T10:07:16;23.47;;;14.63;;
11604;SDS011;5858;43.076;25.626;2024-03-02T10:09:52;18.73;;;12.90;;
11604;SDS011;5858;43.076;25.626;2024-03-02T10:12:32;14.97;;;12.17;;
11604;SDS011;5858;43.076;25.626;2024-03-02T10:15:27;17.77;;;13.53;;
11604;SDS011;5858;43.076;25.626;2024-03-02T10:18:12;20.13;;;14.00;;
11604;SDS011;5858;43.076;25.626;2024-03-02T10:21:19;19.43;;;13.73;;
11604;SDS011;5858;43.076;25.626;2024-03-02T10:23:49;17.93;;;12.83;;
11604;SDS011;5858;43.076;25.626;2024-03-02T10:26:16;20.93;;;13.53;;
11604;SDS011;5858;43.076;25.626;2024-03-02T10:29:04;19.03;;;14.03;;
11604;SDS011;5858;43.076;25.626;2024-03-02T10:31:35;29.90;;;20.53;;
11604;SDS011;5858;43.076;25.626;2024-03-02T10:34:22;27.50;;;14.43;;
11604;SDS011;5858;43.076;25.626;2024-03-02T10:36:55;18.37;;;13.40;;
11604;SDS011;5858;43.076;25.626;2024-03-02T10:39:22;27.63;;;15.03;;
11604;SDS011;5858;43.076;25.626;2024-03-02T10:41:50;28.83;;;16.53;;
11604;SDS011;5858;43.076;25.626;2024-03-02T10:44:19;24.03;;;15.90;;
11604;SDS011;5858;43.076;25.626;2024-03-02T10:46:47;19.07;;;14.33;;
11604;SDS011;5858;43.076;25.626;2024-03-02T10:49:16;18.53;;;14.07;;
11604;SDS011;5858;43.076;25.626;2024-03-02T10:51:43;24.53;;;17.20;;
11604;SDS011;5858;43.076;25.626;2024-03-02T10:54:10;22.67;;;14.10;;
11604;SDS011;5858;43.076;25.626;2024-03-02T10:56:38;21.77;;;13.40;;
11604;SDS011;5858;43.076;25.626;2024-03-02T10:59:16;17.50;;;12.57;;
11604;SDS011;5858;43.076;25.626;2024-03-02T11:02:17;20.47;;;12.90;;
11604;SDS011;5858;43.076;25.626;2024-03-02T11:04:48;19.87;;;12.40;;
11604;SDS011;5858;43.076;25.626;2024-03-02T11:07:19;21.90;;;11.80;;
11604;SDS011;5858;43.076;25.626;2024-03-02T11:09:49;19.17;;;12.77;;
11604;SDS011;5858;43.076;25.626;2024-03-02T11:12:23;22.10;;;13.30;;
11604;SDS011;5858;43.076;25.626;2024-03-02T11:14:59;17.67;;;11.87;;
11604;SDS011;5858;43.076;25.626;2024-03-02T11:17:33;18.17;;;10.77;;
11604;SDS011;5858;43.076;25.626;2024-03-02T11:20:00;18.13;;;11.37;;
11604;SDS011;5858;43.076;25.626;2024-03-02T11:22:40;16.37;;;11.27;;
11604;SDS011;5858;43.076;25.626;2024-03-02T11:25:11;19.00;;;12.30;;
11604;SDS011;5858;43.076;25.626;2024-03-02T11:28:08;18.43;;;12.10;;
11604;SDS011;5858;43.076;25.626;2024-03-02T11:30:51;22.80;;;13.60;;
11604;SDS011;5858;43.076;25.626;2024-03-02T11:33:26;18.87;;;12.77;;
11604;SDS011;5858;43.076;25.626;2024-03-02T11:35:56;18.80;;;12.87;;
11604;SDS011;5858;43.076;25.626;2024-03-02T11:38:24;17.40;;;13.07;;
11604;SDS011;5858;43.076;25.626;2024-03-02T11:40:55;19.13;;;11.53;;
11604;SDS011;5858;43.076;25.626;2024-03-02T11:43:23;16.77;;;12.37;;
11604;SDS011;5858;43.076;25.626;2024-03-02T11:46:03;17.53;;;12.90;;
11604;SDS011;5858;43.076;25.626;2024-03-02T11:48:48;16.70;;;11.30;;
11604;SDS011;5858;43.076;25.626;2024-03-02T11:51:17;15.67;;;12.87;;
11604;SDS011;5858;43.076;25.626;2024-03-02T11:53:59;17.90;;;12.13;;
11604;SDS011;5858;43.076;25.626;2024-03-02T11:56:32;14.30;;;11.50;;
11604;SDS011;5858;43.076;25.626;2024-03-02T11:59:01;21.23;;;12.30;;
11604;SDS011;5858;43.076;25.626;2024-03-02T12:01:29;15.97;;;11.97;;
11604;SDS011;5858;43.076;25.626;2024-03-02T12:03:58;14.77;;;11.27;;
11604;SDS011;5858;43.076;25.626;2024-03-02T12:06:26;16.30;;;11.50;;
11604;SDS011;5858;43.076;25.626;2024-03-02T12:08:57;15.70;;;11.63;;
11604;SDS011;5858;43.076;25.626;2024-03-02T12:11:24;15.77;;;11.90;;
11604;SDS011;5858;43.076;25.626;2024-03-02T12:14:00;17.23;;;11.47;;
11604;SDS011;5858;43.076;25.626;2024-03-02T12:16:37;19.23;;;13.53;;
11604;SDS011;5858;43.076;25.626;2024-03-02T12:19:08;19.00;;;12.30;;
11604;SDS011;5858;43.076;25.626;2024-03-02T12:21:37;22.23;;;12.93;;
11604;SDS011;5858;43.076;25.626;2024-03-02T12:24:05;19.23;;;12.80;;
11604;SDS011;5858;43.076;25.626;2024-03-02T12:29:35;16.23;;;11.60;;
11604;SDS011;5858;43.076;25.626;2024-03-02T12:32:03;16.53;;;12.23;;
11604;SDS011;5858;43.076;25.626;2024-03-02T12:34:46;16.37;;;12.90;;
11604;SDS011;5858;43.076;25.626;2024-03-02T12:37:47;18.93;;;11.57;;
11604;SDS011;5858;43.076;25.626;2024-03-02T12:40:17;16.60;;;11.63;;
11604;SDS011;5858;43.076;25.626;2024-03-02T12:42:53;17.60;;;11.40;;
11604;SDS011;5858;43.076;25.626;2024-03-02T12:45:23;17.63;;;11.80;;
11604;SDS011;5858;43.076;25.626;2024-03-02T12:48:08;19.60;;;12.47;;
11604;SDS011;5858;43.076;25.626;2024-03-02T12:50:38;15.37;;;12.03;;
11604;SDS011;5858;43.076;25.626;2024-03-02T12:53:13;17.07;;;11.57;;
11604;SDS011;5858;43.076;25.626;2024-03-02T12:55:42;23.07;;;11.43;;
11604;SDS011;5858;43.076;25.626;2024-03-02T12:58:22;22.77;;;11.77;;
11604;SDS011;5858;43.076;25.626;2024-03-02T13:00:49;19.03;;;11.53;;
11604;SDS011;5858;43.076;25.626;2024-03-02T13:03:20;18.27;;;11.93;;
11604;SDS011;5858;43.076;25.626;2024-03-02T13:05:57;18.43;;;12.00;;
11604;SDS011;5858;43.076;25.626;2024-03-02T13:08:24;21.53;;;12.00;;
11604;SDS011;5858;43.076;25.626;2024-03-02T13:10:52;15.13;;;11.83;;
11604;SDS011;5858;43.076;25.626;2024-03-02T13:13:19;20.70;;;12.13;;
11604;SDS011;5858;43.076;25.626;2024-03-02T13:15:48;18.23;;;12.13;;
11604;SDS011;5858;43.076;25.626;2024-03-02T13:18:21;17.73;;;12.87;;
11604;SDS011;5858;43.076;25.626;2024-03-02T13:21:01;21.17;;;13.00;;
11604;SDS011;5858;43.076;25.626;2024-03-02T13:23:30;20.73;;;13.10;;
11604;SDS011;5858;43.076;25.626;2024-03-02T13:25:57;19.57;;;12.60;;
11604;SDS011;5858;43.076;25.626;2024-03-02T13:28:24;17.90;;;12.87;;
11604;SDS011;5858;43.076;25.626;2024-03-02T13:30:54;18.40;;;12.10;;
11604;SDS011;5858;43.076;25.626;2024-03-02T13:33:21;22.93;;;13.17;;
11604;SDS011;5858;43.076;25.626;2024-03-02T13:35:48;21.50;;;12.37;;
11604;SDS011;5858;43.076;25.626;2024-03-02T13:38:19;19.13;;;12.87;;
11604;SDS011;5858;43.076;25.626;2024-03-02T13:40:55;16.77;;;11.80;;
11604;SDS011;5858;43.076;25.626;2024-03-02T13:43:34;22.10;;;12.97;;
11604;SDS011;5858;43.076;25.626;2024-03-02T13:46:05;20.13;;;12.43;;
11604;SDS011;5858;43.076;25.626;2024-03-02T13:48:31;20.27;;;11.93;;
11604;SDS011;5858;43.076;25.626;2024-03-02T13:51:00;19.03;;;12.53;;
11604;SDS011;5858;43.076;25.626;2024-03-02T13:53:30;20.50;;;11.97;;
11604;SDS011;5858;43.076;25.626;2024-03-02T13:55:57;21.07;;;12.73;;
11604;SDS011;5858;43.076;25.626;2024-03-02T13:58:27;18.30;;;12.37;;
11604;SDS011;5858;43.076;25.626;2024-03-02T14:01:02;18.93;;;13.03;;
11604;SDS011;5858;43.076;25.626;2024-03-02T14:03:32;26.20;;;13.57;;
11604;SDS011;5858;43.076;25.626;2024-03-02T14:06:04;19.73;;;13.57;;
11604;SDS011;5858;43.076;25.626;2024-03-02T14:08:35;21.90;;;13.93;;
11604;SDS011;5858;43.076;25.626;2024-03-02T14:11:04;21.57;;;13.53;;
11604;SDS011;5858;43.076;25.626;2024-03-02T14:13:34;21.50;;;13.53;;
11604;SDS011;5858;43.076;25.626;2024-03-02T14:16:10;20.77;;;14.13;;
11604;SDS011;5858;43.076;25.626;2024-03-02T14:18:50;23.17;;;13.17;;
11604;SDS011;5858;43.076;25.626;2024-03-02T14:21:18;23.53;;;13.70;;
11604;SDS011;5858;43.076;25.626;2024-03-02T14:23:50;23.20;;;13.83;;
11604;SDS011;5858;43.076;25.626;2024-03-02T14:26:18;24.90;;;14.37;;
11604;SDS011;5858;43.076;25.626;2024-03-02T14:28:49;22.93;;;13.23;;
11604;SDS011;5858;43.076;25.626;2024-03-02T14:31:26;23.60;;;13.83;;
11604;SDS011;5858;43.076;25.626;2024-03-02T14:34:04;18.27;;;13.83;;
11604;SDS011;5858;43.076;25.626;2024-03-02T14:36:37;16.20;;;13.27;;
11604;SDS011;5858;43.076;25.626;2024-03-02T14:42:20;20.57;;;13.30;;
11604;SDS011;5858;43.076;25.626;2024-03-02T14:45:06;20.07;;;14.50;;
11604;SDS011;5858;43.076;25.626;2024-03-02T14:47:45;17.17;;;13.70;;
11604;SDS011;5858;43.076;25.626;2024-03-02T14:50:27;19.10;;;14.43;;
11604;SDS011;5858;43.076;25.626;2024-03-02T14:52:54;23.50;;;14.63;;
11604;SDS011;5858;43.076;25.626;2024-03-02T14:55:24;22.33;;;14.13;;
11604;SDS011;5858;43.076;25.626;2024-03-02T14:57:53;21.83;;;14.20;;
11604;SDS011;5858;43.076;25.626;2024-03-02T15:00:20;22.97;;;14.37;;
11604;SDS011;5858;43.076;25.626;2024-03-02T15:02:47;21.67;;;14.03;;
11604;SDS011;5858;43.076;25.626;2024-03-02T15:05:22;17.17;;;14.17;;
11604;SDS011;5858;43.076;25.626;2024-03-02T15:10:44;24.77;;;15.30;;
11604;SDS011;5858;43.076;25.626;2024-03-02T15:13:11;23.13;;;14.00;;
11604;SDS011;5858;43.076;25.626;2024-03-02T15:15:42;18.57;;;14.37;;
11604;SDS011;5858;43.076;25.626;2024-03-02T15:18:10;19.40;;;15.07;;
11604;SDS011;5858;43.076;25.626;2024-03-02T15:20:37;20.27;;;15.23;;
11604;SDS011;5858;43.076;25.626;2024-03-02T15:23:10;24.33;;;14.87;;
11604;SDS011;5858;43.076;25.626;2024-03-02T15:25:37;21.17;;;15.40;;
11604;SDS011;5858;43.076;25.626;2024-03-02T15:28:20;20.90;;;15.10;;
11604;SDS011;5858;43.076;25.626;2024-03-02T15:30:49;24.87;;;15.80;;
11604;SDS011;5858;43.076;25.626;2024-03-02T15:36:22;26.47;;;16.47;;
11604;SDS011;5858;43.076;25.626;2024-03-02T15:38:52;23.43;;;15.67;;
11604;SDS011;5858;43.076;25.626;2024-03-02T15:41:35;23.57;;;17.37;;
11604;SDS011;5858;43.076;25.626;2024-03-02T15:44:03;26.00;;;16.30;;
11604;SDS011;5858;43.076;25.626;2024-03-02T15:46:38;39.90;;;25.03;;
11604;SDS011;5858;43.076;25.626;2024-03-02T15:49:23;31.90;;;20.47;;
11604;SDS011;5858;43.076;25.626;2024-03-02T15:51:59;23.97;;;17.63;;
11604;SDS011;5858;43.076;25.626;2024-03-02T15:54:29;30.30;;;20.63;;
11604;SDS011;5858;43.076;25.626;2024-03-02T15:57:11;29.63;;;18.10;;
11604;SDS011;5858;43.076;25.626;2024-03-02T16:03:10;25.87;;;17.50;;
11604;SDS011;5858;43.076;25.626;2024-03-02T16:05:46;25.57;;;16.77;;
11604;SDS011;5858;43.076;25.626;2024-03-02T16:08:16;25.50;;;16.87;;
11604;SDS011;5858;43.076;25.626;2024-03-02T16:10:45;25.67;;;17.37;;
11604;SDS011;5858;43.076;25.626;2024-03-02T16:13:14;20.40;;;14.93;;
11604;SDS011;5858;43.076;25.626;2024-03-02T16:15:41;21.77;;;14.70;;
11604;SDS011;5858;43.076;25.626;2024-03-02T16:21:12;24.87;;;14.97;;
11604;SDS011;5858;43.076;25.626;2024-03-02T16:23:43;29.20;;;17.23;;
11604;SDS011;5858;43.076;25.626;2024-03-02T16:26:14;23.27;;;16.50;;
11604;SDS011;5858;43.076;25.626;2024-03-02T16:28:49;21.60;;;15.60;;
11604;SDS011;5858;43.076;25.626;2024-03-02T16:31:34;18.43;;;14.30;;
11604;SDS011;5858;43.076;25.626;2024-03-02T16:34:03;20.77;;;14.60;;
11604;SDS011;5858;43.076;25.626;2024-03-02T16:42:38;17.07;;;14.27;;
11604;SDS011;5858;43.076;25.626;2024-03-02T16:45:16;17.87;;;13.00;;
11604;SDS011;5858;43.076;25.626;2024-03-02T16:47:47;16.80;;;13.67;;
11604;SDS011;5858;43.076;25.626;2024-03-02T16:50:21;17.97;;;13.73;;
11604;SDS011;5858;43.076;25.626;2024-03-02T16:53:14;19.40;;;13.70;;
11604;SDS011;5858;43.076;25.626;2024-03-02T16:55:53;14.67;;;12.63;;
11604;SDS011;5858;43.076;25.626;2024-03-02T16:58:34;15.97;;;12.63;;
11604;SDS011;5858;43.076;25.626;2024-03-02T17:01:04;20.67;;;13.30;;
11604;SDS011;5858;43.076;25.626;2024-03-02T17:03:58;17.17;;;12.63;;
11604;SDS011;5858;43.076;25.626;2024-03-02T17:06:35;16.73;;;12.37;;
11604;SDS011;5858;43.076;25.626;2024-03-02T17:09:03;17.63;;;12.33;;
11604;SDS011;5858;43.076;25.626;2024-03-02T17:11:45;16.90;;;12.33;;
11604;SDS011;5858;43.076;25.626;2024-03-02T17:14:20;16.57;;;11.93;;
11604;SDS011;5858;43.076;25.626;2024-03-02T17:17:18;14.97;;;10.60;;
11604;SDS011;5858;43.076;25.626;2024-03-02T17:19:58;16.17;;;11.80;;
11604;SDS011;5858;43.076;25.626;2024-03-02T17:26:14;13.70;;;8.73;;
11604;SDS011;5858;43.076;25.626;2024-03-02T17:29:02;15.03;;;9.77;;
11604;SDS011;5858;43.076;25.626;2024-03-02T17:31:32;14.67;;;8.80;;
11604;SDS011;5858;43.076;25.626;2024-03-02T17:34:03;12.23;;;9.40;;
11604;SDS011;5858;43.076;25.626;2024-03-02T17:36:36;14.60;;;9.27;;
11604;SDS011;5858;43.076;25.626;2024-03-02T17:42:08;13.00;;;8.20;;
11604;SDS011;5858;43.076;25.626;2024-03-02T17:44:37;15.27;;;9.53;;
11604;SDS011;5858;43.076;25.626;2024-03-02T17:48:08;17.37;;;11.60;;
11604;SDS011;5858;43.076;25.626;2024-03-02T17:50:44;14.60;;;9.63;;
11604;SDS011;5858;43.076;25.626;2024-03-02T17:54:00;11.63;;;8.83;;
11604;SDS011;5858;43.076;25.626;2024-03-02T17:56:36;13.03;;;9.37;;
11604;SDS011;5858;43.076;25.626;2024-03-02T17:59:06;14.30;;;9.40;;
11604;SDS011;5858;43.076;25.626;2024-03-02T18:02:12;12.33;;;11.03;;
11604;SDS011;5858;43.076;25.626;2024-03-02T18:07:31;14.10;;;12.27;;
11604;SDS011;5858;43.076;25.626;2024-03-02T18:10:18;14.30;;;11.83;;
11604;SDS011;5858;43.076;25.626;2024-03-02T18:12:50;16.33;;;11.93;;
11604;SDS011;5858;43.076;25.626;2024-03-02T18:15:29;15.37;;;12.67;;
11604;SDS011;5858;43.076;25.626;2024-03-02T18:18:05;15.63;;;10.37;;
11604;SDS011;5858;43.076;25.626;2024-03-02T18:20:39;13.27;;;10.00;;
11604;SDS011;5858;43.076;25.626;2024-03-02T18:23:24;14.67;;;12.23;;
11604;SDS011;5858;43.076;25.626;2024-03-02T18:28:45;18.00;;;13.57;;
11604;SDS011;5858;43.076;25.626;2024-03-02T18:31:12;16.83;;;13.07;;
11604;SDS011;5858;43.076;25.626;2024-03-02T18:33:44;12.83;;;9.83;;
11604;SDS011;5858;43.076;25.626;2024-03-02T18:36:14;16.17;;;10.63;;
11604;SDS011;5858;43.076;25.626;2024-03-02T18:38:48;16.70;;;11.00;;
11604;SDS011;5858;43.076;25.626;2024-03-02T18:48:09;16.40;;;13.10;;
11604;SDS011;5858;43.076;25.626;2024-03-02T18:50:38;18.00;;;14.10;;
11604;SDS011;5858;43.076;25.626;2024-03-02T18:53:07;18.63;;;13.53;;
11604;SDS011;5858;43.076;25.626;2024-03-02T18:56:41;18.37;;;14.57;;
11604;SDS011;5858;43.076;25.626;2024-03-02T19:02:06;18.60;;;14.20;;
11604;SDS011;5858;43.076;25.626;2024-03-02T19:04:47;18.07;;;14.37;;
11604;SDS011;5858;43.076;25.626;2024-03-02T19:07:21;16.30;;;13.40;;
11604;SDS011;5858;43.076;25.626;2024-03-02T19:10:07;17.00;;;13.37;;
11604;SDS011;5858;43.076;25.626;2024-03-02T19:13:19;20.80;;;13.57;;
11604;SDS011;5858;43.076;25.626;2024-03-02T19:16:17;16.73;;;11.57;;
11604;SDS011;5858;43.076;25.626;2024-03-02T19:25:41;21.20;;;14.27;;
11604;SDS011;5858;43.076;25.626;2024-03-02T19:32:14;17.17;;;14.17;;
11604;SDS011;5858;43.076;25.626;2024-03-02T19:34:51;19.73;;;14.90;;
11604;SDS011;5858;43.076;25.626;2024-03-02T19:37:19;19.13;;;14.70;;
11604;SDS011;5858;43.076;25.626;2024-03-02T19:39:49;18.43;;;13.70;;
11604;SDS011;5858;43.076;25.626;2024-03-02T21:21:27;18.77;;;13.30;;
11604;SDS011;5858;43.076;25.626;2024-03-02T21:24:12;22.40;;;13.07;;
11604;SDS011;5858;43.076;25.626;2024-03-02T21:59:14;23.67;;;16.43;;
11604;SDS011;5858;43.076;25.626;2024-03-02T22:08:47;24.10;;;16.77;;
11604;SDS011;5858;43.076;25.626;2024-03-02T22:11:42;23.93;;;16.90;;
11604;SDS011;5858;43.076;25.626;2024-03-02T22:14:44;19.07;;;15.60;;
11604;SDS011;5858;43.076;25.626;2024-03-02T22:17:31;19.73;;;15.80;;
11604;SDS011;5858;43.076;25.626;2024-03-02T22:20:20;19.97;;;16.27;;
11604;SDS011;5858;43.076;25.626;2024-03-02T22:23:05;21.73;;;15.23;;
11604;SDS011;5858;43.076;25.626;2024-03-02T22:25:37;20.43;;;15.03;;
11604;SDS011;5858;43.076;25.626;2024-03-02T22:28:05;22.27;;;16.23;;
11604;SDS011;5858;43.076;25.626;2024-03-02T22:36:53;27.37;;;17.20;;
11604;SDS011;5858;43.076;25.626;2024-03-02T22:46:26;22.80;;;17.23;;
11604;SDS011;5858;43.076;25.626;2024-03-02T22:49:44;24.37;;;17.33;;
11604;SDS011;5858;43.076;25.626;2024-03-02T22:52:23;22.87;;;17.07;;
11604;SDS011;5858;43.076;25.626;2024-03-02T22:55:22;24.53;;;17.80;;
11604;SDS011;5858;43.076;25.626;2024-03-02T22:58:08;26.70;;;17.93;;
11604;SDS011;5858;43.076;25.626;2024-03-02T23:00:48;24.17;;;18.53;;
11604;SDS011;5858;43.076;25.626;2024-03-02T23:03:35;23.20;;;18.07;;
11604;SDS011;5858;43.076;25.626;2024-03-02T23:06:15;21.63;;;16.00;;
11604;SDS011;5858;43.076;25.626;2024-03-02T23:11:53;25.03;;;17.67;;
11604;SDS011;5858;43.076;25.626;2024-03-02T23:14:22;24.73;;;17.97;;
11604;SDS011;5858;43.076;25.626;2024-03-02T23:17:00;24.10;;;16.80;;
11604;SDS011;5858;43.076;25.626;2024-03-02T23:19:38;24.73;;;16.33;;
11604;SDS011;5858;43.076;25.626;2024-03-02T23:22:20;23.83;;;16.83;;
11604;SDS011;5858;43.076;25.626;2024-03-02T23:25:02;24.57;;;18.03;;
11604;SDS011;5858;43.076;25.626;2024-03-02T23:27:40;23.30;;;17.67;;
11604;SDS011;5858;43.076;25.626;2024-03-02T23:30:25;27.00;;;17.43;;
11604;SDS011;5858;43.076;25.626;2024-03-02T23:32:57;22.43;;;17.90;;
11604;SDS011;5858;43.076;25.626;2024-03-02T23:35:25;21.93;;;17.20;;
11604;SDS011;5858;43.076;25.626;2024-03-02T23:37:53;22.13;;;16.87;;
11604;SDS011;5858;43.076;25.626;2024-03-02T23:40:20;23.77;;;17.00;;
11604;SDS011;5858;43.076;25.626;2024-03-02T23:43:04;31.83;;;18.97;;
11604;SDS011;5858;43.076;25.626;2024-03-02T23:45:33;23.37;;;14.10;;
11604;SDS011;5858;43.076;25.626;2024-03-02T23:48:07;19.97;;;14.20;;
11604;SDS011;5858;43.076;25.626;2024-03-02T23:50:42;24.67;;;14.90;;
11604;SDS011;5858;43.076;25.626;2024-03-02T23:53:29;20.63;;;13.73;;
11604;SDS011;5858;43.076;25.626;2024-03-02T23:56:07;21.40;;;14.20;;
11604;SDS011;5858;43.076;25.626;2024-03-02T23:58:42;23.27;;;14.40;;
